Time;durP1;ratioP1;P1;durP2;ratioP2;P2;SDS_P1;SDS_P2;PMS_P1;PMS_P2;Temp;Humidity;BMP_temperature;BMP_pressure;BME280_temperature;BME280_humidity;BME280_pressure;Samples;Min_cycle;Max_cycle;Signal;HPM_P1;HPM_P2
2023/02/16 00:01:47;;;;;;;61.35;30.15;;;4.10;99.90;;;;;;5071765;28;20075;-80
2023/02/16 00:04:16;;;;;;;59.58;29.95;;;4.10;99.90;;;;;;5082204;28;20057;-81
2023/02/16 00:06:43;;;;;;;58.83;29.92;;;4.10;99.90;;;;;;5051793;28;20463;-81
2023/02/16 00:09:10;;;;;;;54.80;29.25;;;4.10;99.90;;;;;;5019594;28;20047;-80
2023/02/16 00:14:25;;;;;;;57.63;30.55;;;4.00;99.90;;;;;;5066753;28;20503;-81
2023/02/16 00:16:53;;;;;;;56.60;29.48;;;4.00;99.90;;;;;;5039145;28;20037;-81
2023/02/16 00:19:27;;;;;;;57.65;30.73;;;4.00;99.90;;;;;;5038960;28;20099;-81
2023/02/16 00:21:56;;;;;;;58.85;30.55;;;4.00;99.90;;;;;;5071998;28;20123;-81
2023/02/16 00:24:25;;;;;;;60.85;29.92;;;4.00;99.90;;;;;;5070420;28;20118;-81
2023/02/16 00:26:52;;;;;;;56.20;29.85;;;4.10;99.90;;;;;;5035632;28;20053;-81
2023/02/16 00:29:19;;;;;;;60.55;31.45;;;4.10;99.90;;;;;;5051570;28;20057;-81
2023/02/16 00:31:46;;;;;;;60.03;30.52;;;4.10;99.90;;;;;;5051573;28;20482;-81
2023/02/16 00:34:31;;;;;;;62.10;31.67;;;4.10;99.90;;;;;;5037264;28;20474;-81
2023/02/16 00:37:00;;;;;;;61.45;29.58;;;4.10;99.90;;;;;;5071632;28;20386;-81
2023/02/16 00:39:28;;;;;;;58.38;29.92;;;4.20;99.90;;;;;;5071788;28;20041;-81
2023/02/16 00:41:59;;;;;;;55.40;29.75;;;4.10;99.90;;;;;;5087572;28;20100;-81
2023/02/16 00:44:35;;;;;;;59.83;28.77;;;4.10;99.90;;;;;;5071236;28;20045;-80
2023/02/16 00:47:12;;;;;;;52.90;28.33;;;4.00;99.90;;;;;;5070980;28;20049;-81
2023/02/16 00:49:38;;;;;;;55.35;29.27;;;4.00;99.90;;;;;;5071476;28;20045;-80
2023/02/16 00:52:21;;;;;;;66.43;30.70;;;4.20;99.90;;;;;;5054657;28;20556;-80
2023/02/16 00:54:47;;;;;;;59.58;30.10;;;4.00;99.90;;;;;;5068345;28;20413;-80
2023/02/16 00:57:17;;;;;;;57.95;30.13;;;4.00;99.90;;;;;;5038336;28;20091;-81
2023/02/16 00:59:45;;;;;;;61.92;30.92;;;4.00;99.90;;;;;;5054806;28;20037;-81
2023/02/16 01:02:12;;;;;;;60.40;30.77;;;4.00;99.90;;;;;;5054393;28;20040;-81
2023/02/16 01:04:39;;;;;;;69.25;31.98;;;4.00;99.90;;;;;;5040000;28;20094;-80
2023/02/16 01:12:42;;;;;;;53.75;28.55;;;3.90;99.90;;;;;;5087810;28;20083;-80
2023/02/16 01:15:12;;;;;;;58.80;29.55;;;3.90;99.90;;;;;;5053828;28;20080;-81
2023/02/16 01:17:40;;;;;;;54.80;28.80;;;3.80;99.90;;;;;;5053948;28;20032;-80
2023/02/16 01:20:22;;;;;;;63.28;31.63;;;3.80;99.90;;;;;;5054285;28;20396;-81
2023/02/16 01:22:49;;;;;;;61.35;30.17;;;3.80;99.90;;;;;;5070958;28;20033;-80
2023/02/16 01:25:16;;;;;;;60.85;30.75;;;3.80;99.90;;;;;;5070359;28;20041;-80
2023/02/16 01:27:43;;;;;;;54.45;28.80;;;3.80;99.90;;;;;;5036314;28;20041;-81
2023/02/16 01:30:17;;;;;;;57.45;32.00;;;3.70;99.90;;;;;;5034317;28;20041;-80
2023/02/16 01:32:51;;;;;;;59.90;31.35;;;3.70;99.90;;;;;;5050472;28;20045;-80
2023/02/16 01:35:29;;;;;;;62.08;31.13;;;3.80;99.90;;;;;;5034855;28;20073;-81
2023/02/16 01:37:56;;;;;;;57.80;30.25;;;3.70;99.90;;;;;;5061580;28;20073;-81
2023/02/16 01:40:40;;;;;;;63.97;30.13;;;3.70;99.90;;;;;;5067174;28;20510;-80
2023/02/16 01:43:38;;;;;;;60.28;31.35;;;3.60;99.90;;;;;;5066785;28;20708;-81
2023/02/16 01:46:13;;;;;;;57.47;29.80;;;3.60;99.90;;;;;;5050065;28;20397;-80
2023/02/16 01:48:40;;;;;;;61.75;30.50;;;3.60;99.90;;;;;;5083915;28;20049;-80
2023/02/16 01:51:25;;;;;;;59.05;31.13;;;3.60;99.90;;;;;;5017238;28;20045;-81
2023/02/16 01:53:59;;;;;;;55.55;30.67;;;3.50;99.90;;;;;;5066630;28;20038;-80
2023/02/16 01:56:32;;;;;;;64.18;30.75;;;3.50;99.90;;;;;;5050034;28;20147;-81
2023/02/16 01:59:25;;;;;;;64.53;30.58;;;3.70;99.90;;;;;;5049664;28;20417;-81
2023/02/16 02:02:03;;;;;;;52.08;28.25;;;3.40;99.90;;;;;;5050202;28;20048;-81
2023/02/16 02:07:43;;;;;;;56.58;29.42;;;3.30;99.90;;;;;;5066423;28;20048;-81
2023/02/16 02:10:49;;;;;;;57.58;30.08;;;3.30;99.90;;;;;;5050040;28;20563;-81
2023/02/16 02:13:23;;;;;;;58.58;30.35;;;3.30;99.90;;;;;;5049608;28;20037;-80
2023/02/16 02:15:50;;;;;;;62.83;29.27;;;3.20;99.90;;;;;;5049968;28;20410;-80
2023/02/16 02:18:16;;;;;;;59.85;30.83;;;3.20;99.90;;;;;;5064706;28;20036;-80
2023/02/16 02:24:35;;;;;;;58.00;29.80;;;3.20;99.90;;;;;;5065985;28;20076;-81
2023/02/16 02:27:24;;;;;;;57.42;30.65;;;3.20;99.90;;;;;;5049798;28;20053;-81
2023/02/16 02:30:00;;;;;;;59.60;30.55;;;3.10;99.90;;;;;;5076259;28;20041;-80
2023/02/16 02:32:52;;;;;;;56.17;29.60;;;3.10;99.90;;;;;;5069145;28;20037;-80
2023/02/16 02:35:50;;;;;;;62.05;30.65;;;3.10;99.90;;;;;;5069296;28;20063;-80
2023/02/16 02:38:19;;;;;;;61.58;30.73;;;3.10;99.90;;;;;;5069018;28;20157;-81
2023/02/16 02:41:00;;;;;;;59.75;30.42;;;3.10;99.90;;;;;;5085758;28;20132;-80
2023/02/16 02:43:34;;;;;;;58.88;30.17;;;3.30;99.90;;;;;;5085749;28;20044;-81
2023/02/16 02:46:11;;;;;;;58.20;31.33;;;3.00;99.90;;;;;;5086151;28;20045;-80
2023/02/16 02:48:38;;;;;;;60.92;30.88;;;3.00;99.90;;;;;;5085741;28;20580;-80
2023/02/16 03:02:56;;;;;;;60.85;30.58;;;3.10;99.90;;;;;;5085458;28;20053;-80
2023/02/16 03:05:26;;;;;;;64.28;32.28;;;3.10;99.90;;;;;;5068498;28;20060;-80
2023/02/16 03:07:56;;;;;;;62.70;32.85;;;3.10;99.90;;;;;;5068794;28;20052;-81
2023/02/16 03:13:17;;;;;;;65.15;32.13;;;3.20;99.90;;;;;;5085093;28;20041;-81
2023/02/16 03:15:46;;;;;;;62.33;32.45;;;3.10;99.90;;;;;;5068898;28;20079;-80
2023/02/16 03:29:25;;;;;;;65.20;32.58;;;3.10;99.90;;;;;;5055011;28;20053;-81
2023/02/16 03:31:54;;;;;;;65.35;31.83;;;3.10;99.90;;;;;;5053071;28;20037;-80
2023/02/16 03:34:21;;;;;;;58.25;31.88;;;3.20;99.90;;;;;;5066671;28;20669;-81
2023/02/16 03:36:53;;;;;;;62.17;32.55;;;3.10;99.90;;;;;;5039689;28;20041;-81
2023/02/16 03:39:20;;;;;;;58.50;32.15;;;3.20;99.90;;;;;;5072569;28;20047;-81
2023/02/16 03:41:50;;;;;;;63.28;30.90;;;3.20;99.90;;;;;;5072883;28;20037;-81
2023/02/16 03:44:17;;;;;;;66.45;32.85;;;3.30;99.90;;;;;;5088863;28;20472;-81
2023/02/16 03:46:44;;;;;;;64.32;32.47;;;3.30;99.90;;;;;;5039697;28;20148;-80
2023/02/16 03:49:11;;;;;;;65.93;34.92;;;3.40;99.90;;;;;;5072308;28;20041;-81
2023/02/16 03:51:38;;;;;;;61.05;31.88;;;3.60;99.90;;;;;;5039718;28;20044;-81
2023/02/16 03:54:05;;;;;;;64.88;33.75;;;3.60;99.90;;;;;;5035761;28;20037;-80
2023/02/16 03:56:31;;;;;;;64.00;33.40;;;3.40;99.90;;;;;;5052198;28;20784;-81
2023/02/16 03:58:58;;;;;;;56.35;31.13;;;3.40;99.90;;;;;;5052421;28;20091;-80
2023/02/16 04:01:25;;;;;;;69.72;35.05;;;3.60;99.90;;;;;;5052349;28;20037;-81
2023/02/16 04:03:51;;;;;;;66.10;34.22;;;3.50;99.90;;;;;;5056233;28;20043;-81
2023/02/16 04:06:18;;;;;;;66.53;34.03;;;3.70;99.90;;;;;;5055867;28;20057;-81
2023/02/16 04:08:45;;;;;;;72.10;33.28;;;3.60;99.90;;;;;;5035902;28;20045;-80
2023/02/16 04:13:57;;;;;;;67.65;35.33;;;3.80;99.90;;;;;;5073452;28;20064;-80
2023/02/16 04:16:24;;;;;;;63.40;33.10;;;3.70;99.90;;;;;;5088242;28;20501;-81
2023/02/16 04:18:50;;;;;;;68.00;33.20;;;3.80;99.90;;;;;;5039096;28;20076;-81
2023/02/16 04:21:17;;;;;;;61.78;34.35;;;3.80;99.90;;;;;;5055360;28;20537;-81
2023/02/16 04:23:44;;;;;;;66.10;33.22;;;3.90;99.90;;;;;;5055251;28;20045;-81
2023/02/16 04:26:11;;;;;;;69.45;33.60;;;3.90;99.90;;;;;;5051874;28;20041;-80
2023/02/16 04:28:37;;;;;;;64.13;33.83;;;4.50;99.90;;;;;;5064502;28;20413;-81
2023/02/16 04:31:04;;;;;;;66.85;34.40;;;3.90;99.90;;;;;;5062190;28;20037;-81
2023/02/16 04:33:31;;;;;;;63.70;33.60;;;4.00;99.90;;;;;;5080534;28;20033;-81
2023/02/16 04:35:57;;;;;;;64.85;33.88;;;4.00;99.90;;;;;;5061374;28;20033;-81
2023/02/16 04:38:24;;;;;;;65.65;34.47;;;4.00;99.90;;;;;;5051159;28;20175;-81
2023/02/16 04:40:51;;;;;;;65.47;32.45;;;4.10;99.90;;;;;;5051201;28;20042;-81
2023/02/16 04:43:18;;;;;;;68.70;33.70;;;4.10;99.90;;;;;;5051302;28;20049;-81
2023/02/16 04:45:45;;;;;;;64.43;34.75;;;4.10;99.90;;;;;;5046340;28;20573;-81
2023/02/16 04:48:11;;;;;;;63.60;34.58;;;4.10;99.90;;;;;;5034842;28;20045;-81
2023/02/16 04:50:38;;;;;;;66.88;34.13;;;4.30;99.90;;;;;;5051181;28;20033;-81
2023/02/16 04:53:05;;;;;;;67.28;36.00;;;4.20;99.90;;;;;;5067625;28;20486;-81
2023/02/16 04:55:32;;;;;;;67.18;33.85;;;4.20;99.90;;;;;;5035045;28;20543;-80
2023/02/16 04:57:58;;;;;;;66.03;34.72;;;4.50;99.90;;;;;;5052951;28;20056;-81
2023/02/16 05:00:25;;;;;;;66.28;33.88;;;4.40;99.90;;;;;;5043527;28;20533;-81
2023/02/16 05:02:52;;;;;;;68.97;36.00;;;4.20;99.90;;;;;;5049143;28;20489;-81
2023/02/16 05:05:19;;;;;;;64.68;33.97;;;4.50;99.90;;;;;;5058786;28;20050;-81
2023/02/16 05:07:45;;;;;;;66.00;34.28;;;4.20;99.90;;;;;;5032366;28;20099;-81
2023/02/16 05:10:12;;;;;;;66.13;35.03;;;4.30;99.90;;;;;;5034759;28;20038;-81
2023/02/16 05:15:24;;;;;;;65.95;34.22;;;4.30;99.90;;;;;;5056079;28;20486;-81
2023/02/16 05:17:51;;;;;;;66.75;35.42;;;4.30;99.90;;;;;;5028427;28;20183;-81
2023/02/16 05:20:18;;;;;;;68.22;34.90;;;4.40;99.90;;;;;;5050781;28;20041;-81
2023/02/16 05:22:45;;;;;;;70.03;34.75;;;4.40;99.90;;;;;;5018093;28;20401;-81
2023/02/16 05:25:14;;;;;;;64.63;35.08;;;4.40;99.90;;;;;;5035560;28;20095;-81
2023/02/16 05:27:41;;;;;;;71.30;34.97;;;4.50;99.90;;;;;;5030693;28;20041;-81
2023/02/16 05:30:08;;;;;;;64.38;33.83;;;4.50;99.90;;;;;;5034330;28;20116;-81
2023/02/16 05:32:35;;;;;;;65.97;35.28;;;4.40;99.90;;;;;;5034245;28;20670;-81
2023/02/16 05:35:02;;;;;;;65.85;34.75;;;4.50;99.90;;;;;;5034386;28;20124;-81
2023/02/16 05:37:28;;;;;;;75.07;34.55;;;4.50;99.90;;;;;;5053513;28;20033;-81
2023/02/16 05:39:55;;;;;;;61.42;31.88;;;4.40;99.90;;;;;;5069850;28;20045;-81
2023/02/16 05:42:22;;;;;;;63.67;32.72;;;4.50;99.90;;;;;;5037062;28;20039;-81
2023/02/16 05:44:48;;;;;;;67.13;32.47;;;4.50;99.90;;;;;;5037316;28;20433;-81
2023/02/16 05:47:15;;;;;;;66.13;33.30;;;4.50;99.90;;;;;;5034468;28;20398;-81
2023/02/16 05:49:42;;;;;;;64.13;32.65;;;4.50;99.90;;;;;;5033443;28;20049;-81
2023/02/16 05:52:09;;;;;;;60.30;32.00;;;4.50;99.90;;;;;;5066685;28;20036;-81
2023/02/16 05:54:35;;;;;;;63.78;33.17;;;4.60;99.90;;;;;;5037418;28;20041;-81
2023/02/16 05:57:02;;;;;;;63.08;33.40;;;4.60;99.90;;;;;;5037647;28;20045;-81
2023/02/16 05:59:29;;;;;;;61.28;32.85;;;4.60;99.90;;;;;;5035610;28;20044;-81
2023/02/16 06:01:56;;;;;;;64.90;33.15;;;4.60;99.90;;;;;;5034071;28;20041;-81
2023/02/16 06:04:23;;;;;;;60.35;32.20;;;4.70;99.90;;;;;;5033736;28;20128;-81
2023/02/16 06:06:49;;;;;;;63.65;33.08;;;4.60;99.90;;;;;;5054580;28;20056;-81
2023/02/16 06:09:16;;;;;;;62.58;32.63;;;4.60;99.90;;;;;;5071546;28;20040;-81
2023/02/16 06:11:43;;;;;;;67.65;34.25;;;4.60;99.90;;;;;;5040599;28;20036;-81
2023/02/16 06:14:13;;;;;;;62.92;32.03;;;4.60;99.90;;;;;;5040455;28;20041;-81
2023/02/16 06:16:42;;;;;;;60.05;32.72;;;4.60;99.90;;;;;;5072882;28;20044;-81
2023/02/16 06:19:09;;;;;;;62.72;32.90;;;4.60;99.90;;;;;;5073292;28;20522;-81
2023/02/16 06:21:37;;;;;;;62.58;33.33;;;4.70;99.90;;;;;;5073248;28;20039;-80
2023/02/16 06:24:04;;;;;;;61.83;33.08;;;4.60;99.90;;;;;;5072793;28;20041;-81
2023/02/16 06:26:31;;;;;;;61.78;31.77;;;4.60;99.90;;;;;;5063029;28;20036;-81
2023/02/16 06:28:58;;;;;;;64.80;32.20;;;4.60;99.90;;;;;;5080698;28;20044;-81
2023/02/16 06:31:25;;;;;;;61.38;31.45;;;4.60;99.90;;;;;;5069287;28;20032;-80
2023/02/16 06:33:53;;;;;;;67.25;32.60;;;4.60;99.90;;;;;;5072519;28;20102;-81
2023/02/16 06:36:24;;;;;;;65.40;31.70;;;4.60;99.90;;;;;;5088347;28;20450;-81
2023/02/16 06:38:51;;;;;;;61.88;32.17;;;4.60;99.90;;;;;;5072353;28;20036;-81
2023/02/16 06:41:30;;;;;;;67.05;33.03;;;4.70;99.90;;;;;;5056337;28;20044;-81
2023/02/16 06:43:58;;;;;;;59.78;31.10;;;4.60;99.90;;;;;;5057284;28;20083;-81
2023/02/16 06:46:25;;;;;;;59.40;25.92;;;4.60;99.90;;;;;;5055727;28;20377;-81
2023/02/16 06:48:52;;;;;;;54.97;25.88;;;4.60;99.90;;;;;;5076358;28;20065;-81
2023/02/16 06:51:19;;;;;;;55.20;25.92;;;4.70;99.90;;;;;;5072161;28;20033;-81
2023/02/16 06:53:46;;;;;;;54.95;25.33;;;4.70;99.90;;;;;;5071272;28;20037;-81
2023/02/16 06:56:13;;;;;;;54.78;26.25;;;4.60;99.90;;;;;;5072228;28;20083;-81
2023/02/16 06:58:39;;;;;;;60.13;26.23;;;4.70;99.90;;;;;;5088159;28;20044;-81
2023/02/16 07:01:06;;;;;;;58.25;26.80;;;4.70;99.90;;;;;;5072449;28;20048;-80
2023/02/16 07:03:34;;;;;;;58.20;25.88;;;4.70;99.90;;;;;;5056186;28;20040;-80
2023/02/16 07:06:01;;;;;;;55.35;26.08;;;4.70;99.90;;;;;;5032084;28;20585;-80
2023/02/16 07:08:28;;;;;;;55.63;25.23;;;4.70;99.90;;;;;;5048923;28;20128;-81
2023/02/16 07:10:54;;;;;;;57.22;25.67;;;4.70;99.90;;;;;;5048930;28;20042;-80
2023/02/16 07:13:21;;;;;;;52.15;25.88;;;4.70;99.90;;;;;;5016719;28;20482;-81
2023/02/16 07:15:48;;;;;;;52.03;25.73;;;4.70;99.90;;;;;;5032378;28;20041;-81
2023/02/16 07:18:14;;;;;;;52.63;26.27;;;4.80;99.90;;;;;;5016623;28;20041;-81
2023/02/16 07:20:42;;;;;;;54.78;25.95;;;4.90;99.90;;;;;;5032578;28;20045;-81
2023/02/16 07:23:08;;;;;;;58.60;28.10;;;4.90;99.90;;;;;;5032466;28;20048;-81
2023/02/16 07:25:35;;;;;;;53.00;26.45;;;4.80;99.90;;;;;;5036137;28;20049;-81
2023/02/16 07:28:02;;;;;;;61.13;27.17;;;4.80;99.90;;;;;;5031911;28;20049;-81
2023/02/16 07:30:28;;;;;;;58.10;26.60;;;4.90;99.90;;;;;;5032645;28;20037;-81
2023/02/16 07:32:55;;;;;;;52.67;26.55;;;4.90;99.90;;;;;;5033240;28;20131;-81
2023/02/16 07:35:22;;;;;;;57.67;25.52;;;5.10;99.90;;;;;;5028776;28;20040;-81
2023/02/16 07:37:48;;;;;;;55.60;25.15;;;5.00;99.90;;;;;;5042716;28;20228;-81
2023/02/16 07:40:15;;;;;;;53.65;25.27;;;5.00;99.90;;;;;;5029151;28;20112;-81
2023/02/16 07:42:42;;;;;;;59.40;26.25;;;5.00;99.90;;;;;;5037623;28;20042;-81
2023/02/16 07:45:09;;;;;;;57.30;25.23;;;5.00;99.90;;;;;;5043380;28;20038;-81
2023/02/16 07:47:35;;;;;;;55.22;25.25;;;5.10;99.90;;;;;;5048388;28;20099;-81
2023/02/16 07:50:03;;;;;;;53.95;25.70;;;5.10;99.90;;;;;;5048295;28;20041;-81
2023/02/16 07:52:30;;;;;;;62.13;27.05;;;5.10;99.90;;;;;;5052055;28;20091;-81
2023/02/16 07:54:59;;;;;;;55.55;26.23;;;5.10;99.90;;;;;;5039148;28;20441;-81
2023/02/16 07:57:27;;;;;;;63.30;26.55;;;5.20;99.90;;;;;;5059694;28;20548;-81
2023/02/16 07:59:54;;;;;;;51.28;25.15;;;5.20;99.90;;;;;;5016022;28;20409;-81
2023/02/16 08:02:22;;;;;;;62.17;27.25;;;5.30;99.90;;;;;;5031994;28;20080;-82
2023/02/16 08:04:53;;;;;;;56.75;26.55;;;5.30;99.90;;;;;;5053602;28;20029;-81
2023/02/16 08:07:20;;;;;;;55.75;26.50;;;5.20;99.90;;;;;;5091288;28;20471;-81
2023/02/16 08:09:47;;;;;;;56.03;26.55;;;5.30;99.90;;;;;;5064320;28;20041;-82
2023/02/16 08:12:15;;;;;;;55.28;25.45;;;5.70;99.90;;;;;;5069802;28;20040;-81
2023/02/16 08:14:43;;;;;;;57.30;26.33;;;5.40;99.90;;;;;;5085173;28;20044;-81
2023/02/16 08:17:10;;;;;;;52.75;25.85;;;5.40;99.90;;;;;;5064953;28;20119;-82
2023/02/16 08:19:36;;;;;;;53.00;25.42;;;5.50;99.90;;;;;;5098878;28;20136;-82
2023/02/16 08:22:04;;;;;;;60.88;25.45;;;5.50;99.90;;;;;;5071606;28;20048;-82
2023/02/16 08:24:32;;;;;;;52.67;25.02;;;5.60;99.90;;;;;;5102040;28;20047;-82
2023/02/16 08:27:02;;;;;;;55.35;25.65;;;5.60;99.90;;;;;;5066804;28;20518;-82
2023/02/16 08:29:30;;;;;;;57.80;25.75;;;5.60;99.90;;;;;;5083620;28;20083;-81
2023/02/16 08:31:57;;;;;;;57.83;26.13;;;5.70;99.90;;;;;;5068902;28;20041;-81
2023/02/16 08:34:25;;;;;;;55.65;26.67;;;5.60;99.90;;;;;;5042273;28;20040;-81
2023/02/16 08:36:55;;;;;;;55.28;26.33;;;5.70;99.90;;;;;;5074742;28;20041;-81
2023/02/16 08:39:24;;;;;;;54.92;25.55;;;5.70;99.90;;;;;;5074963;28;20738;-82
2023/02/16 08:41:52;;;;;;;50.38;26.13;;;5.70;99.90;;;;;;5091307;28;20075;-81
2023/02/16 08:44:22;;;;;;;53.55;23.88;;;5.70;99.90;;;;;;5058026;28;20044;-81
2023/02/16 08:46:51;;;;;;;54.40;25.38;;;5.80;99.90;;;;;;5074846;28;20512;-81
2023/02/16 08:49:20;;;;;;;53.42;26.55;;;5.80;99.90;;;;;;5074849;28;20094;-81
2023/02/16 08:51:50;;;;;;;52.25;25.63;;;5.90;99.90;;;;;;5058531;28;20036;-81
2023/02/16 08:54:20;;;;;;;58.10;25.70;;;5.80;99.90;;;;;;5074482;28;20489;-81
2023/02/16 08:56:48;;;;;;;52.08;25.27;;;5.90;99.90;;;;;;5074580;28;20045;-81
2023/02/16 08:59:16;;;;;;;50.70;24.55;;;5.90;99.90;;;;;;5074255;28;20040;-81
2023/02/16 09:01:43;;;;;;;54.05;25.10;;;5.90;99.90;;;;;;5060007;28;20086;-81
2023/02/16 09:04:11;;;;;;;52.22;24.77;;;5.90;99.90;;;;;;5074406;28;20052;-81
2023/02/16 09:06:40;;;;;;;60.67;27.60;;;6.00;99.90;;;;;;5057655;28;20064;-80
2023/02/16 09:09:08;;;;;;;57.05;28.70;;;6.00;99.90;;;;;;5074109;28;20044;-81
2023/02/16 09:11:36;;;;;;;56.83;26.95;;;6.00;99.90;;;;;;5074489;28;20060;-81
2023/02/16 09:14:03;;;;;;;55.05;28.80;;;6.00;99.90;;;;;;5107182;28;20048;-81
2023/02/16 09:16:33;;;;;;;56.95;27.38;;;6.00;99.90;;;;;;5073415;28;20040;-81
2023/02/16 09:19:00;;;;;;;59.67;28.10;;;6.10;99.90;;;;;;5074249;28;20079;-80
2023/02/16 09:21:31;;;;;;;57.70;29.40;;;6.10;99.90;;;;;;5074285;28;20044;-80
2023/02/16 09:24:00;;;;;;;54.50;26.75;;;6.10;99.90;;;;;;5073861;28;20554;-80
2023/02/16 09:26:31;;;;;;;50.92;26.42;;;6.10;99.90;;;;;;5074562;28;20048;-79
2023/02/16 09:28:57;;;;;;;57.63;26.40;;;6.20;99.90;;;;;;5091884;28;20170;-79
2023/02/16 09:31:27;;;;;;;53.00;26.48;;;6.20;99.90;;;;;;5060550;28;20138;-80
2023/02/16 09:33:58;;;;;;;56.88;24.77;;;6.20;99.90;;;;;;5093877;28;20028;-80
2023/02/16 09:36:26;;;;;;;56.65;25.98;;;6.20;99.90;;;;;;5093915;28;20485;-79
2023/02/16 09:38:53;;;;;;;52.47;24.17;;;6.20;99.90;;;;;;5094455;28;20043;-80
2023/02/16 09:41:41;;;;;;;46.08;25.38;;;6.30;99.90;;;;;;5077004;28;20066;-79
2023/02/16 09:44:43;;;;;;;58.85;26.42;;;6.30;99.90;;;;;;5078992;28;20043;-80
2023/02/16 09:47:26;;;;;;;54.40;25.70;;;6.30;99.90;;;;;;5046035;28;20053;-79
2023/02/16 09:49:55;;;;;;;52.35;25.40;;;6.40;99.90;;;;;;5089989;28;20044;-79
2023/02/16 09:52:36;;;;;;;54.10;26.35;;;6.40;99.90;;;;;;5057168;28;20033;-79
2023/02/16 09:55:11;;;;;;;52.38;26.13;;;6.50;99.90;;;;;;5073412;28;20033;-80
2023/02/16 09:58:00;;;;;;;59.05;26.92;;;6.50;99.90;;;;;;5073048;28;20044;-80
2023/02/16 10:00:32;;;;;;;62.78;26.88;;;6.50;99.90;;;;;;5101702;28;20047;-79
2023/02/16 10:03:05;;;;;;;53.10;27.45;;;6.50;99.90;;;;;;5094130;28;20044;-79
2023/02/16 10:05:51;;;;;;;64.32;29.65;;;6.60;99.90;;;;;;5093199;28;20078;-79
2023/02/16 10:08:36;;;;;;;59.13;26.73;;;6.50;99.90;;;;;;5090844;28;20047;-79
2023/02/16 10:11:36;;;;;;;54.55;26.88;;;6.60;99.90;;;;;;5075769;28;20029;-79
2023/02/16 10:13:57;;;;;;;50.38;25.30;;;6.60;99.90;;;;;;5089888;28;20044;-81
2023/02/16 10:16:32;;;;;;;50.58;25.60;;;6.60;99.90;;;;;;5057542;28;20461;-81
2023/02/16 10:19:04;;;;;;;56.72;27.00;;;6.70;99.90;;;;;;5088349;28;20078;-81
2023/02/16 10:21:31;;;;;;;55.22;25.95;;;6.70;99.90;;;;;;5081111;28;20048;-81
2023/02/16 10:24:02;;;;;;;55.92;26.45;;;6.70;99.90;;;;;;5093014;28;20075;-81
2023/02/16 10:26:37;;;;;;;51.97;25.58;;;6.80;99.90;;;;;;5093348;28;20046;-81
2023/02/16 10:29:22;;;;;;;56.80;25.65;;;6.80;99.90;;;;;;5072829;28;20040;-81
2023/02/16 10:32:15;;;;;;;49.43;25.80;;;6.80;99.90;;;;;;5060347;28;20037;-81
2023/02/16 10:34:51;;;;;;;56.72;26.65;;;6.90;99.90;;;;;;5072581;28;20279;-81
2023/02/16 10:37:39;;;;;;;54.72;26.55;;;7.00;99.90;;;;;;5073252;28;20072;-81
2023/02/16 10:40:40;;;;;;;54.67;26.77;;;7.00;99.90;;;;;;5090285;28;20048;-82
2023/02/16 10:43:33;;;;;;;55.67;26.98;;;7.10;99.90;;;;;;5079121;28;20928;-81
2023/02/16 10:46:02;;;;;;;61.13;27.45;;;7.10;99.90;;;;;;5069175;28;20056;-81
2023/02/16 10:48:30;;;;;;;55.38;26.75;;;7.10;99.90;;;;;;5072544;28;20043;-81
2023/02/16 10:51:15;;;;;;;60.38;27.60;;;7.10;99.90;;;;;;5072475;28;20032;-81
2023/02/16 10:53:53;;;;;;;58.72;27.15;;;7.10;99.90;;;;;;5072531;28;20501;-81
2023/02/16 10:56:51;;;;;;;55.42;26.95;;;7.20;99.90;;;;;;5072248;28;20741;-81
2023/02/16 10:59:22;;;;;;;52.58;26.42;;;7.10;99.90;;;;;;5088567;28;20426;-81
2023/02/16 11:01:59;;;;;;;57.63;28.20;;;7.10;99.90;;;;;;5084289;28;20036;-81
2023/02/16 11:04:40;;;;;;;53.70;26.15;;;7.10;99.90;;;;;;5080438;28;20032;-81
2023/02/16 11:07:15;;;;;;;55.85;26.30;;;7.10;99.90;;;;;;5079420;28;20501;-81
2023/02/16 11:09:43;;;;;;;;;;;7.10;99.90;;;;;;5098224;28;20072;-81
2023/02/16 11:12:31;;;;;;;58.00;26.27;;;7.10;99.90;;;;;;5073770;28;19921;-81
2023/02/16 11:15:04;;;;;;;67.28;28.33;;;7.10;99.90;;;;;;5073728;28;20119;-81
2023/02/16 11:17:48;;;;;;;54.80;25.83;;;7.10;99.90;;;;;;5091937;28;20399;-81
2023/02/16 11:20:30;;;;;;;61.10;27.85;;;7.10;99.90;;;;;;5077064;28;20032;-81
2023/02/16 11:23:16;;;;;;;61.10;26.65;;;7.00;99.90;;;;;;5078643;28;20032;-82
2023/02/16 11:26:05;;;;;;;60.85;28.33;;;7.00;99.90;;;;;;5091862;28;20040;-82
2023/02/16 11:28:47;;;;;;;65.07;28.88;;;7.00;99.90;;;;;;5083224;28;20048;-82
2023/02/16 11:31:39;;;;;;;71.20;31.75;;;7.00;99.90;;;;;;5080694;28;20035;-82
2023/02/16 11:34:27;;;;;;;75.90;32.50;;;7.10;99.90;;;;;;5083081;28;20040;-82
2023/02/16 11:37:05;;;;;;;80.95;37.80;;;7.10;99.90;;;;;;5093590;28;20051;-82
2023/02/16 11:39:37;;;;;;;65.93;30.35;;;7.10;99.90;;;;;;5073768;28;20083;-82
2023/02/16 11:42:17;;;;;;;66.78;31.25;;;7.00;99.90;;;;;;5076331;28;20075;-82
2023/02/16 11:44:52;;;;;;;65.57;29.83;;;7.10;99.90;;;;;;5076264;28;20040;-82
2023/02/16 11:47:21;;;;;;;60.40;28.48;;;7.00;99.90;;;;;;5084060;28;20040;-82
2023/02/16 11:50:03;;;;;;;59.28;31.33;;;7.00;99.90;;;;;;5091656;28;20128;-82
2023/02/16 11:52:31;;;;;;;63.95;29.33;;;7.00;99.90;;;;;;5087539;28;20040;-82
2023/02/16 11:55:00;;;;;;;65.82;31.35;;;7.10;99.90;;;;;;5082149;28;20040;-81
2023/02/16 11:57:34;;;;;;;63.20;29.67;;;7.10;99.90;;;;;;5083518;28;20542;-82
2023/02/16 12:00:13;;;;;;;60.17;28.25;;;7.10;99.90;;;;;;5077831;28;20040;-82
2023/02/16 12:03:01;;;;;;;62.78;28.80;;;7.20;99.90;;;;;;5078652;28;20040;-82
2023/02/16 12:05:51;;;;;;;65.47;28.52;;;7.20;99.90;;;;;;5084881;28;20043;-82
2023/02/16 12:08:59;;;;;;;63.45;29.17;;;7.20;99.90;;;;;;5086241;28;20040;-82
2023/02/16 12:11:44;;;;;;;70.57;30.75;;;7.20;99.90;;;;;;5072914;28;20121;-82
2023/02/16 12:14:33;;;;;;;66.75;30.92;;;7.20;99.90;;;;;;5075872;28;20036;-82
2023/02/16 12:17:35;;;;;;;68.28;31.23;;;7.20;99.90;;;;;;5075619;28;20047;-82
2023/02/16 12:20:10;;;;;;;66.38;29.15;;;7.30;99.90;;;;;;5075363;28;20075;-82
2023/02/16 12:22:47;;;;;;;66.15;31.23;;;7.30;99.90;;;;;;5075211;28;20045;-82
2023/02/16 12:25:25;;;;;;;65.85;31.38;;;7.40;99.90;;;;;;5092474;28;20408;-82
2023/02/16 12:28:14;;;;;;;67.70;30.63;;;7.50;99.90;;;;;;5095184;28;20101;-82
2023/02/16 12:31:06;;;;;;;61.88;29.48;;;7.50;99.90;;;;;;5095093;28;20042;-82
2023/02/16 12:33:46;;;;;;;61.80;28.98;;;7.60;99.90;;;;;;5094473;28;20131;-82
2023/02/16 12:36:38;;;;;;;71.90;31.05;;;7.70;99.90;;;;;;5095015;28;20040;-82
2023/02/16 12:39:25;;;;;;;67.22;29.65;;;7.70;99.90;;;;;;5100480;28;20405;-82
2023/02/16 12:42:20;;;;;;;68.82;30.88;;;7.70;99.90;;;;;;5090673;28;20052;-82
2023/02/16 12:44:52;;;;;;;68.60;30.35;;;7.80;99.90;;;;;;5093371;28;20068;-82
2023/02/16 12:47:35;;;;;;;65.45;29.85;;;7.80;99.90;;;;;;5083129;28;20123;-82
2023/02/16 12:50:07;;;;;;;65.75;29.08;;;7.80;99.90;;;;;;5094042;28;20939;-82
2023/02/16 12:52:41;;;;;;;70.70;31.77;;;7.80;99.90;;;;;;5077850;28;20040;-82
2023/02/16 12:55:20;;;;;;;60.72;29.08;;;7.70;99.90;;;;;;5082317;28;20046;-82
2023/02/16 12:58:08;;;;;;;61.30;28.83;;;7.80;99.90;;;;;;5094899;28;20079;-82
2023/02/16 13:00:48;;;;;;;57.05;28.45;;;7.80;99.90;;;;;;5086241;28;20036;-82
2023/02/16 13:03:45;;;;;;;66.50;29.85;;;7.80;99.90;;;;;;5082518;28;20037;-82
2023/02/16 13:06:42;;;;;;;60.22;30.17;;;7.80;99.90;;;;;;5083899;28;20055;-82
2023/02/16 13:09:32;;;;;;;64.47;29.10;;;7.90;99.90;;;;;;5082092;28;20106;-82
2023/02/16 13:12:53;;;;;;;58.40;29.58;;;7.90;99.90;;;;;;5077702;28;20033;-82
2023/02/16 13:15:25;;;;;;;67.07;30.17;;;8.00;99.90;;;;;;5050320;28;20044;-82
2023/02/16 13:17:57;;;;;;;62.88;31.55;;;8.00;99.90;;;;;;5108185;28;20040;-83
2023/02/16 13:20:24;;;;;;;67.70;32.30;;;8.10;99.90;;;;;;5083598;28;20039;-83
2023/02/16 13:23:11;;;;;;;69.80;34.28;;;8.20;99.90;;;;;;5063229;28;20036;-83
2023/02/16 13:25:47;;;;;;;64.45;30.35;;;8.30;99.90;;;;;;5086900;28;20040;-83
2023/02/16 13:29:01;;;;;;;64.07;30.23;;;8.30;99.90;;;;;;5089819;28;20037;-83
2023/02/16 13:31:42;;;;;;;75.18;39.40;;;8.30;99.90;;;;;;5082097;28;20035;-83
2023/02/16 13:34:23;;;;;;;69.95;38.20;;;8.40;99.90;;;;;;5088281;28;20112;-83
2023/02/16 13:37:02;;;;;;;65.47;33.50;;;8.40;99.90;;;;;;5073502;28;20102;-82
2023/02/16 13:39:41;;;;;;;66.30;34.65;;;8.50;99.90;;;;;;5080332;28;20535;-83
2023/02/16 13:42:30;;;;;;;60.58;31.83;;;8.50;99.90;;;;;;5092345;28;20048;-81
2023/02/16 13:45:10;;;;;;;57.80;30.85;;;8.60;99.90;;;;;;5074745;28;20051;-81
2023/02/16 13:47:39;;;;;;;65.75;32.13;;;8.50;99.90;;;;;;5075585;28;20489;-81
2023/02/16 13:50:28;;;;;;;67.55;35.05;;;8.60;99.90;;;;;;5067308;28;20456;-82
2023/02/16 13:53:17;;;;;;;59.40;30.08;;;8.70;99.90;;;;;;5072936;28;20075;-82
2023/02/16 13:55:44;;;;;;;65.10;32.90;;;8.70;99.90;;;;;;5073583;28;20094;-81